sensor_id;sensor_type;location;lat;lon;timestamp;P1;durP1;ratioP1;P2;durP2;ratioP2
46751;SDS011;32497;48.936;9.270;2023-02-20T00:00:21;1.97;;;1.30;;
46751;SDS011;32497;48.936;9.270;2023-02-20T00:05:24;3.87;;;1.30;;
46751;SDS011;32497;48.936;9.270;2023-02-20T00:10:27;1.80;;;0.90;;
46751;SDS011;32497;48.936;9.270;2023-02-20T00:15:28;3.93;;;0.70;;
46751;SDS011;32497;48.936;9.270;2023-02-20T00:20:29;1.80;;;0.80;;
46751;SDS011;32497;48.936;9.270;2023-02-20T00:25:32;4.00;;;1.23;;
46751;SDS011;32497;48.936;9.270;2023-02-20T00:30:33;1.80;;;0.77;;
46751;SDS011;32497;48.936;9.270;2023-02-20T00:35:34;1.33;;;0.90;;
46751;SDS011;32497;48.936;9.270;2023-02-20T00:40:37;4.50;;;1.40;;
46751;SDS011;32497;48.936;9.270;2023-02-20T00:45:38;1.50;;;0.83;;
46751;SDS011;32497;48.936;9.270;2023-02-20T00:55:56;3.83;;;1.03;;
46751;SDS011;32497;48.936;9.270;2023-02-20T01:00:57;4.73;;;0.90;;
46751;SDS011;32497;48.936;9.270;2023-02-20T01:05:59;2.30;;;1.27;;
46751;SDS011;32497;48.936;9.270;2023-02-20T01:11:01;4.40;;;1.33;;
46751;SDS011;32497;48.936;9.270;2023-02-20T01:16:03;3.63;;;1.13;;
46751;SDS011;32497;48.936;9.270;2023-02-20T01:21:05;1.77;;;1.00;;
46751;SDS011;32497;48.936;9.270;2023-02-20T01:26:07;2.47;;;0.93;;
46751;SDS011;32497;48.936;9.270;2023-02-20T01:31:08;2.20;;;0.90;;
46751;SDS011;32497;48.936;9.270;2023-02-20T01:36:10;1.93;;;0.90;;
46751;SDS011;32497;48.936;9.270;2023-02-20T01:41:13;3.83;;;1.00;;
46751;SDS011;32497;48.936;9.270;2023-02-20T01:51:47;1.67;;;0.70;;
46751;SDS011;32497;48.936;9.270;2023-02-20T01:56:53;1.33;;;0.90;;
46751;SDS011;32497;48.936;9.270;2023-02-20T02:01:58;5.50;;;1.23;;
46751;SDS011;32497;48.936;9.270;2023-02-20T02:07:00;6.80;;;0.93;;
46751;SDS011;32497;48.936;9.270;2023-02-20T02:12:03;3.33;;;0.67;;
46751;SDS011;32497;48.936;9.270;2023-02-20T02:22:46;9.40;;;1.23;;
46751;SDS011;32497;48.936;9.270;2023-02-20T02:34:11;5.47;;;1.10;;
46751;SDS011;32497;48.936;9.270;2023-02-20T02:39:39;2.10;;;0.87;;
46751;SDS011;32497;48.936;9.270;2023-02-20T02:44:46;1.47;;;0.77;;
46751;SDS011;32497;48.936;9.270;2023-02-20T02:49:57;3.63;;;1.10;;
46751;SDS011;32497;48.936;9.270;2023-02-20T02:55:03;6.40;;;0.83;;
46751;SDS011;32497;48.936;9.270;2023-02-20T03:00:07;1.87;;;0.80;;
46751;SDS011;32497;48.936;9.270;2023-02-20T03:05:11;2.30;;;0.93;;
46751;SDS011;32497;48.936;9.270;2023-02-20T03:10:19;1.70;;;0.60;;
46751;SDS011;32497;48.936;9.270;2023-02-20T03:15:25;1.87;;;0.80;;
46751;SDS011;32497;48.936;9.270;2023-02-20T03:20:29;2.37;;;1.07;;
46751;SDS011;32497;48.936;9.270;2023-02-20T03:25:32;2.20;;;1.23;;
46751;SDS011;32497;48.936;9.270;2023-02-20T03:30:36;2.00;;;1.27;;
46751;SDS011;32497;48.936;9.270;2023-02-20T03:35:42;4.17;;;1.10;;
46751;SDS011;32497;48.936;9.270;2023-02-20T03:40:47;2.33;;;1.20;;
46751;SDS011;32497;48.936;9.270;2023-02-20T03:45:50;2.67;;;1.07;;
46751;SDS011;32497;48.936;9.270;2023-02-20T03:50:55;1.70;;;0.80;;
46751;SDS011;32497;48.936;9.270;2023-02-20T03:56:01;8.97;;;1.43;;
46751;SDS011;32497;48.936;9.270;2023-02-20T04:01:05;1.80;;;0.73;;
46751;SDS011;32497;48.936;9.270;2023-02-20T04:06:09;1.33;;;0.60;;
46751;SDS011;32497;48.936;9.270;2023-02-20T04:11:15;1.37;;;1.00;;
46751;SDS011;32497;48.936;9.270;2023-02-20T04:16:22;2.27;;;1.10;;
46751;SDS011;32497;48.936;9.270;2023-02-20T04:21:28;1.80;;;0.93;;
46751;SDS011;32497;48.936;9.270;2023-02-20T04:26:37;2.87;;;1.10;;
46751;SDS011;32497;48.936;9.270;2023-02-20T04:31:39;1.90;;;0.90;;
46751;SDS011;32497;48.936;9.270;2023-02-20T04:36:41;1.63;;;0.80;;
46751;SDS011;32497;48.936;9.270;2023-02-20T04:41:43;1.10;;;0.63;;
46751;SDS011;32497;48.936;9.270;2023-02-20T04:46:45;2.10;;;1.27;;
46751;SDS011;32497;48.936;9.270;2023-02-20T04:51:47;5.30;;;0.77;;
46751;SDS011;32497;48.936;9.270;2023-02-20T04:56:51;1.80;;;1.03;;
46751;SDS011;32497;48.936;9.270;2023-02-20T05:01:54;1.87;;;1.00;;
46751;SDS011;32497;48.936;9.270;2023-02-20T05:06:55;3.43;;;0.83;;
46751;SDS011;32497;48.936;9.270;2023-02-20T05:11:58;1.47;;;1.07;;
46751;SDS011;32497;48.936;9.270;2023-02-20T05:16:59;1.23;;;0.83;;
46751;SDS011;32497;48.936;9.270;2023-02-20T05:22:00;1.80;;;0.67;;
46751;SDS011;32497;48.936;9.270;2023-02-20T05:27:03;3.40;;;0.73;;
46751;SDS011;32497;48.936;9.270;2023-02-20T05:32:04;1.67;;;0.87;;
46751;SDS011;32497;48.936;9.270;2023-02-20T05:37:06;1.37;;;0.80;;
46751;SDS011;32497;48.936;9.270;2023-02-20T05:42:08;1.50;;;1.07;;
46751;SDS011;32497;48.936;9.270;2023-02-20T05:47:10;2.37;;;1.00;;
46751;SDS011;32497;48.936;9.270;2023-02-20T05:52:11;3.93;;;1.07;;
46751;SDS011;32497;48.936;9.270;2023-02-20T05:57:14;1.57;;;0.67;;
46751;SDS011;32497;48.936;9.270;2023-02-20T06:02:15;3.67;;;0.67;;
46751;SDS011;32497;48.936;9.270;2023-02-20T06:07:16;2.93;;;1.10;;
46751;SDS011;32497;48.936;9.270;2023-02-20T06:12:20;3.00;;;1.17;;
46751;SDS011;32497;48.936;9.270;2023-02-20T06:17:21;1.20;;;0.80;;
46751;SDS011;32497;48.936;9.270;2023-02-20T06:22:22;3.13;;;0.70;;
46751;SDS011;32497;48.936;9.270;2023-02-20T06:27:25;2.50;;;1.30;;
46751;SDS011;32497;48.936;9.270;2023-02-20T06:32:26;1.20;;;0.57;;
46751;SDS011;32497;48.936;9.270;2023-02-20T06:37:27;2.23;;;0.87;;
46751;SDS011;32497;48.936;9.270;2023-02-20T06:42:30;1.17;;;0.83;;
46751;SDS011;32497;48.936;9.270;2023-02-20T06:47:31;1.30;;;0.97;;
46751;SDS011;32497;48.936;9.270;2023-02-20T06:52:32;2.13;;;0.73;;
46751;SDS011;32497;48.936;9.270;2023-02-20T06:57:35;2.60;;;1.00;;
46751;SDS011;32497;48.936;9.270;2023-02-20T07:02:36;2.17;;;1.27;;
46751;SDS011;32497;48.936;9.270;2023-02-20T07:07:37;2.43;;;1.07;;
46751;SDS011;32497;48.936;9.270;2023-02-20T07:12:40;8.17;;;1.40;;
46751;SDS011;32497;48.936;9.270;2023-02-20T07:17:41;1.33;;;0.80;;
46751;SDS011;32497;48.936;9.270;2023-02-20T07:22:47;5.10;;;1.53;;
46751;SDS011;32497;48.936;9.270;2023-02-20T07:27:50;2.20;;;1.17;;
46751;SDS011;32497;48.936;9.270;2023-02-20T07:32:52;2.53;;;1.00;;
46751;SDS011;32497;48.936;9.270;2023-02-20T07:37:53;1.87;;;1.00;;
46751;SDS011;32497;48.936;9.270;2023-02-20T07:42:55;6.80;;;1.37;;
46751;SDS011;32497;48.936;9.270;2023-02-20T07:47:57;2.00;;;1.03;;
46751;SDS011;32497;48.936;9.270;2023-02-20T07:52:58;1.50;;;1.10;;
46751;SDS011;32497;48.936;9.270;2023-02-20T07:58:00;5.97;;;1.57;;
46751;SDS011;32497;48.936;9.270;2023-02-20T08:03:02;2.57;;;1.47;;
46751;SDS011;32497;48.936;9.270;2023-02-20T08:08:03;3.70;;;1.07;;
46751;SDS011;32497;48.936;9.270;2023-02-20T08:13:06;2.63;;;1.47;;
46751;SDS011;32497;48.936;9.270;2023-02-20T08:18:07;2.87;;;1.27;;
46751;SDS011;32497;48.936;9.270;2023-02-20T08:23:14;1.63;;;1.10;;
46751;SDS011;32497;48.936;9.270;2023-02-20T08:28:18;1.87;;;0.83;;
46751;SDS011;32497;48.936;9.270;2023-02-20T08:33:19;7.37;;;1.77;;
46751;SDS011;32497;48.936;9.270;2023-02-20T08:38:22;2.13;;;1.20;;
46751;SDS011;32497;48.936;9.270;2023-02-20T08:43:26;2.63;;;1.17;;
46751;SDS011;32497;48.936;9.270;2023-02-20T08:48:27;2.17;;;0.93;;
46751;SDS011;32497;48.936;9.270;2023-02-20T08:53:29;3.23;;;1.50;;
46751;SDS011;32497;48.936;9.270;2023-02-20T08:58:32;3.07;;;1.37;;
46751;SDS011;32497;48.936;9.270;2023-02-20T09:03:33;2.50;;;1.27;;
46751;SDS011;32497;48.936;9.270;2023-02-20T09:08:34;1.47;;;0.80;;
46751;SDS011;32497;48.936;9.270;2023-02-20T09:13:41;2.97;;;1.23;;
46751;SDS011;32497;48.936;9.270;2023-02-20T09:18:43;1.63;;;0.73;;
46751;SDS011;32497;48.936;9.270;2023-02-20T09:23:45;1.43;;;0.73;;
46751;SDS011;32497;48.936;9.270;2023-02-20T09:28:47;1.70;;;1.03;;
46751;SDS011;32497;48.936;9.270;2023-02-20T09:33:48;4.77;;;1.00;;
46751;SDS011;32497;48.936;9.270;2023-02-20T09:38:50;3.50;;;0.80;;
46751;SDS011;32497;48.936;9.270;2023-02-20T09:43:54;1.47;;;0.70;;
46751;SDS011;32497;48.936;9.270;2023-02-20T09:49:04;1.40;;;0.60;;
46751;SDS011;32497;48.936;9.270;2023-02-20T09:54:10;1.17;;;0.77;;
46751;SDS011;32497;48.936;9.270;2023-02-20T09:59:17;0.73;;;0.40;;
46751;SDS011;32497;48.936;9.270;2023-02-20T10:04:21;2.23;;;0.87;;
46751;SDS011;32497;48.936;9.270;2023-02-20T10:09:26;2.20;;;0.83;;
46751;SDS011;32497;48.936;9.270;2023-02-20T10:14:36;2.60;;;0.87;;
46751;SDS011;32497;48.936;9.270;2023-02-20T10:19:49;1.13;;;0.60;;
46751;SDS011;32497;48.936;9.270;2023-02-20T10:24:57;0.90;;;0.53;;
46751;SDS011;32497;48.936;9.270;2023-02-20T10:30:10;0.67;;;0.40;;
46751;SDS011;32497;48.936;9.270;2023-02-20T10:35:13;2.53;;;0.97;;
46751;SDS011;32497;48.936;9.270;2023-02-20T10:40:21;0.80;;;0.60;;
46751;SDS011;32497;48.936;9.270;2023-02-20T10:45:29;0.60;;;0.40;;
46751;SDS011;32497;48.936;9.270;2023-02-20T10:50:38;1.53;;;1.23;;
46751;SDS011;32497;48.936;9.270;2023-02-20T10:55:45;0.80;;;0.50;;
46751;SDS011;32497;48.936;9.270;2023-02-20T11:00:53;3.43;;;0.67;;
46751;SDS011;32497;48.936;9.270;2023-02-20T11:05:58;1.07;;;0.50;;
46751;SDS011;32497;48.936;9.270;2023-02-20T11:11:05;2.10;;;0.53;;
46751;SDS011;32497;48.936;9.270;2023-02-20T11:16:23;1.00;;;0.50;;
46751;SDS011;32497;48.936;9.270;2023-02-20T11:21:32;0.67;;;0.30;;
46751;SDS011;32497;48.936;9.270;2023-02-20T11:26:35;2.40;;;0.40;;
46751;SDS011;32497;48.936;9.270;2023-02-20T11:31:37;2.23;;;0.70;;
46751;SDS011;32497;48.936;9.270;2023-02-20T11:36:41;1.17;;;0.50;;
46751;SDS011;32497;48.936;9.270;2023-02-20T11:41:45;0.90;;;0.40;;
46751;SDS011;32497;48.936;9.270;2023-02-20T11:52:20;2.57;;;0.70;;
46751;SDS011;32497;48.936;9.270;2023-02-20T11:57:23;0.70;;;0.37;;
46751;SDS011;32497;48.936;9.270;2023-02-20T12:02:28;0.43;;;0.33;;
46751;SDS011;32497;48.936;9.270;2023-02-20T12:07:32;2.70;;;0.30;;
46751;SDS011;32497;48.936;9.270;2023-02-20T12:12:35;0.93;;;0.40;;
46751;SDS011;32497;48.936;9.270;2023-02-20T12:17:38;0.27;;;0.20;;
46751;SDS011;32497;48.936;9.270;2023-02-20T12:22:50;0.53;;;0.27;;
46751;SDS011;32497;48.936;9.270;2023-02-20T12:28:02;0.93;;;0.30;;
46751;SDS011;32497;48.936;9.270;2023-02-20T12:33:17;0.87;;;0.50;;
46751;SDS011;32497;48.936;9.270;2023-02-20T12:38:49;0.40;;;0.30;;
46751;SDS011;32497;48.936;9.270;2023-02-20T12:44:01;5.03;;;0.60;;
46751;SDS011;32497;48.936;9.270;2023-02-20T12:55:05;0.55;;;0.20;;
46751;SDS011;32497;48.936;9.270;2023-02-20T13:00:20;1.52;;;0.32;;
46751;SDS011;32497;48.936;9.270;2023-02-20T13:05:25;0.32;;;0.30;;
46751;SDS011;32497;48.936;9.270;2023-02-20T13:10:29;0.30;;;0.22;;
46751;SDS011;32497;48.936;9.270;2023-02-20T13:15:33;2.05;;;0.20;;
46751;SDS011;32497;48.936;9.270;2023-02-20T13:20:42;0.20;;;0.10;;
46751;SDS011;32497;48.936;9.270;2023-02-20T13:25:47;0.77;;;0.22;;
46751;SDS011;32497;48.936;9.270;2023-02-20T13:31:05;0.52;;;0.30;;
46751;SDS011;32497;48.936;9.270;2023-02-20T13:41:55;1.15;;;0.57;;
46751;SDS011;32497;48.936;9.270;2023-02-20T13:46:58;0.60;;;0.35;;
46751;SDS011;32497;48.936;9.270;2023-02-20T13:52:00;0.38;;;0.38;;
46751;SDS011;32497;48.936;9.270;2023-02-20T13:57:10;0.15;;;0.15;;
46751;SDS011;32497;48.936;9.270;2023-02-20T14:02:17;0.28;;;0.28;;
46751;SDS011;32497;48.936;9.270;2023-02-20T14:07:26;0.45;;;0.25;;
46751;SDS011;32497;48.936;9.270;2023-02-20T14:12:34;0.75;;;0.32;;
46751;SDS011;32497;48.936;9.270;2023-02-20T14:17:35;1.23;;;0.35;;
46751;SDS011;32497;48.936;9.270;2023-02-20T14:22:37;1.67;;;0.45;;
46751;SDS011;32497;48.936;9.270;2023-02-20T14:27:40;1.52;;;0.40;;
46751;SDS011;32497;48.936;9.270;2023-02-20T14:32:41;0.60;;;0.30;;
46751;SDS011;32497;48.936;9.270;2023-02-20T14:37:45;0.90;;;0.38;;
46751;SDS011;32497;48.936;9.270;2023-02-20T14:43:00;0.50;;;0.32;;
46751;SDS011;32497;48.936;9.270;2023-02-20T14:48:02;2.17;;;0.55;;
46751;SDS011;32497;48.936;9.270;2023-02-20T14:53:08;1.75;;;0.45;;
46751;SDS011;32497;48.936;9.270;2023-02-20T14:58:14;1.10;;;0.40;;
46751;SDS011;32497;48.936;9.270;2023-02-20T15:03:18;0.88;;;0.40;;
46751;SDS011;32497;48.936;9.270;2023-02-20T15:08:22;0.32;;;0.22;;
46751;SDS011;32497;48.936;9.270;2023-02-20T15:13:25;0.60;;;0.30;;
46751;SDS011;32497;48.936;9.270;2023-02-20T15:18:30;0.40;;;0.30;;
46751;SDS011;32497;48.936;9.270;2023-02-20T15:23:33;0.43;;;0.30;;
46751;SDS011;32497;48.936;9.270;2023-02-20T15:28:37;0.77;;;0.35;;
46751;SDS011;32497;48.936;9.270;2023-02-20T15:33:38;0.70;;;0.38;;
46751;SDS011;32497;48.936;9.270;2023-02-20T15:38:40;0.93;;;0.40;;
46751;SDS011;32497;48.936;9.270;2023-02-20T15:43:43;0.95;;;0.60;;
46751;SDS011;32497;48.936;9.270;2023-02-20T15:48:44;2.78;;;0.32;;
46751;SDS011;32497;48.936;9.270;2023-02-20T15:53:45;0.73;;;0.45;;
46751;SDS011;32497;48.936;9.270;2023-02-20T15:58:48;0.63;;;0.40;;
46751;SDS011;32497;48.936;9.270;2023-02-20T16:03:50;1.00;;;0.30;;
46751;SDS011;32497;48.936;9.270;2023-02-20T16:08:52;0.70;;;0.40;;
46751;SDS011;32497;48.936;9.270;2023-02-20T16:13:55;1.37;;;0.57;;
46751;SDS011;32497;48.936;9.270;2023-02-20T16:18:58;0.60;;;0.30;;
46751;SDS011;32497;48.936;9.270;2023-02-20T16:24:00;1.00;;;0.37;;
46751;SDS011;32497;48.936;9.270;2023-02-20T16:29:03;1.37;;;0.50;;
46751;SDS011;32497;48.936;9.270;2023-02-20T16:34:06;0.50;;;0.47;;
46751;SDS011;32497;48.936;9.270;2023-02-20T16:39:08;0.77;;;0.27;;
46751;SDS011;32497;48.936;9.270;2023-02-20T16:44:11;0.90;;;0.40;;
46751;SDS011;32497;48.936;9.270;2023-02-20T16:49:14;1.57;;;0.60;;
46751;SDS011;32497;48.936;9.270;2023-02-20T16:54:15;0.50;;;0.30;;
46751;SDS011;32497;48.936;9.270;2023-02-20T16:59:17;1.70;;;0.53;;
46751;SDS011;32497;48.936;9.270;2023-02-20T17:04:19;1.37;;;0.40;;
46751;SDS011;32497;48.936;9.270;2023-02-20T17:09:20;1.17;;;0.37;;
46751;SDS011;32497;48.936;9.270;2023-02-20T17:14:28;1.23;;;0.40;;
46751;SDS011;32497;48.936;9.270;2023-02-20T17:19:29;1.00;;;0.70;;
46751;SDS011;32497;48.936;9.270;2023-02-20T17:24:31;1.07;;;0.53;;
46751;SDS011;32497;48.936;9.270;2023-02-20T17:29:33;1.40;;;0.77;;
46751;SDS011;32497;48.936;9.270;2023-02-20T17:34:34;1.37;;;0.63;;
46751;SDS011;32497;48.936;9.270;2023-02-20T17:39:35;3.13;;;0.53;;
46751;SDS011;32497;48.936;9.270;2023-02-20T17:44:38;1.43;;;0.57;;
46751;SDS011;32497;48.936;9.270;2023-02-20T17:49:39;2.00;;;0.80;;
46751;SDS011;32497;48.936;9.270;2023-02-20T17:54:42;1.83;;;0.43;;
46751;SDS011;32497;48.936;9.270;2023-02-20T17:59:45;1.10;;;0.70;;
46751;SDS011;32497;48.936;9.270;2023-02-20T18:04:47;1.47;;;1.07;;
46751;SDS011;32497;48.936;9.270;2023-02-20T18:09:48;2.03;;;1.00;;
46751;SDS011;32497;48.936;9.270;2023-02-20T18:14:51;6.20;;;0.80;;
46751;SDS011;32497;48.936;9.270;2023-02-20T18:19:52;2.80;;;0.93;;
46751;SDS011;32497;48.936;9.270;2023-02-20T18:24:53;3.63;;;1.20;;
46751;SDS011;32497;48.936;9.270;2023-02-20T18:29:56;2.97;;;1.13;;
46751;SDS011;32497;48.936;9.270;2023-02-20T18:34:57;2.30;;;0.73;;
46751;SDS011;32497;48.936;9.270;2023-02-20T18:39:58;5.63;;;0.80;;
46751;SDS011;32497;48.936;9.270;2023-02-20T18:45:00;2.10;;;1.10;;
46751;SDS011;32497;48.936;9.270;2023-02-20T18:50:01;3.03;;;1.33;;
46751;SDS011;32497;48.936;9.270;2023-02-20T18:55:03;2.77;;;1.00;;
46751;SDS011;32497;48.936;9.270;2023-02-20T19:00:06;3.13;;;1.07;;
46751;SDS011;32497;48.936;9.270;2023-02-20T19:05:08;4.40;;;1.97;;
46751;SDS011;32497;48.936;9.270;2023-02-20T19:10:10;2.83;;;1.47;;
46751;SDS011;32497;48.936;9.270;2023-02-20T19:15:14;5.37;;;1.70;;
46751;SDS011;32497;48.936;9.270;2023-02-20T19:20:16;3.73;;;1.30;;
46751;SDS011;32497;48.936;9.270;2023-02-20T19:25:18;4.57;;;1.70;;
46751;SDS011;32497;48.936;9.270;2023-02-20T19:30:22;3.07;;;1.13;;
46751;SDS011;32497;48.936;9.270;2023-02-20T19:35:23;3.13;;;1.07;;
46751;SDS011;32497;48.936;9.270;2023-02-20T19:40:24;1.23;;;0.70;;
46751;SDS011;32497;48.936;9.270;2023-02-20T19:45:27;1.73;;;0.93;;
46751;SDS011;32497;48.936;9.270;2023-02-20T19:50:28;1.57;;;0.77;;
46751;SDS011;32497;48.936;9.270;2023-02-20T19:55:29;0.90;;;0.60;;
46751;SDS011;32497;48.936;9.270;2023-02-20T20:00:32;2.00;;;1.00;;
46751;SDS011;32497;48.936;9.270;2023-02-20T20:05:33;4.13;;;1.10;;
46751;SDS011;32497;48.936;9.270;2023-02-20T20:10:34;1.33;;;0.87;;
46751;SDS011;32497;48.936;9.270;2023-02-20T20:15:36;2.40;;;0.83;;
46751;SDS011;32497;48.936;9.270;2023-02-20T20:20:37;2.67;;;1.10;;
46751;SDS011;32497;48.936;9.270;2023-02-20T20:25:38;2.53;;;1.20;;
46751;SDS011;32497;48.936;9.270;2023-02-20T20:30:41;3.33;;;0.83;;
46751;SDS011;32497;48.936;9.270;2023-02-20T20:35:43;1.53;;;0.93;;
46751;SDS011;32497;48.936;9.270;2023-02-20T20:40:44;2.77;;;1.57;;
46751;SDS011;32497;48.936;9.270;2023-02-20T20:45:46;4.27;;;1.50;;
46751;SDS011;32497;48.936;9.270;2023-02-20T20:50:47;3.67;;;1.10;;
46751;SDS011;32497;48.936;9.270;2023-02-20T20:55:48;2.97;;;1.60;;
46751;SDS011;32497;48.936;9.270;2023-02-20T21:00:51;2.00;;;0.97;;
46751;SDS011;32497;48.936;9.270;2023-02-20T21:05:52;1.33;;;0.83;;
46751;SDS011;32497;48.936;9.270;2023-02-20T21:10:53;4.07;;;1.40;;
46751;SDS011;32497;48.936;9.270;2023-02-20T21:15:56;2.97;;;1.47;;
46751;SDS011;32497;48.936;9.270;2023-02-20T21:20:57;2.73;;;1.33;;
46751;SDS011;32497;48.936;9.270;2023-02-20T21:25:58;4.00;;;1.30;;
46751;SDS011;32497;48.936;9.270;2023-02-20T21:31:00;3.27;;;1.70;;
46751;SDS011;32497;48.936;9.270;2023-02-20T21:36:02;5.40;;;1.70;;
46751;SDS011;32497;48.936;9.270;2023-02-20T21:41:03;2.37;;;1.50;;
46751;SDS011;32497;48.936;9.270;2023-02-20T21:46:07;3.63;;;1.60;;
46751;SDS011;32497;48.936;9.270;2023-02-20T21:51:09;6.93;;;1.80;;
46751;SDS011;32497;48.936;9.270;2023-02-20T21:56:10;3.43;;;1.33;;
46751;SDS011;32497;48.936;9.270;2023-02-20T22:01:12;3.87;;;1.67;;
46751;SDS011;32497;48.936;9.270;2023-02-20T22:06:13;2.47;;;0.70;;
46751;SDS011;32497;48.936;9.270;2023-02-20T22:11:14;6.23;;;1.60;;
46751;SDS011;32497;48.936;9.270;2023-02-20T22:16:20;2.13;;;1.43;;
46751;SDS011;32497;48.936;9.270;2023-02-20T22:21:21;3.30;;;1.53;;
46751;SDS011;32497;48.936;9.270;2023-02-20T22:26:24;4.60;;;1.50;;
46751;SDS011;32497;48.936;9.270;2023-02-20T22:31:26;2.10;;;1.20;;
46751;SDS011;32497;48.936;9.270;2023-02-20T22:36:27;3.53;;;1.33;;
46751;SDS011;32497;48.936;9.270;2023-02-20T22:41:28;2.63;;;1.30;;
46751;SDS011;32497;48.936;9.270;2023-02-20T22:46:31;4.83;;;1.57;;
46751;SDS011;32497;48.936;9.270;2023-02-20T22:51:32;2.90;;;1.40;;
46751;SDS011;32497;48.936;9.270;2023-02-20T22:56:33;2.97;;;1.50;;
46751;SDS011;32497;48.936;9.270;2023-02-20T23:01:35;1.63;;;0.90;;
46751;SDS011;32497;48.936;9.270;2023-02-20T23:06:36;2.40;;;1.07;;
46751;SDS011;32497;48.936;9.270;2023-02-20T23:11:37;3.80;;;1.57;;
46751;SDS011;32497;48.936;9.270;2023-02-20T23:16:40;4.23;;;1.57;;
46751;SDS011;32497;48.936;9.270;2023-02-20T23:21:42;4.10;;;1.63;;
46751;SDS011;32497;48.936;9.270;2023-02-20T23:26:44;3.57;;;1.23;;
46751;SDS011;32497;48.936;9.270;2023-02-20T23:31:51;1.97;;;1.07;;
46751;SDS011;32497;48.936;9.270;2023-02-20T23:36:52;2.83;;;1.10;;
46751;SDS011;32497;48.936;9.270;2023-02-20T23:41:54;4.10;;;1.40;;
46751;SDS011;32497;48.936;9.270;2023-02-20T23:46:56;2.53;;;1.30;;
46751;SDS011;32497;48.936;9.270;2023-02-20T23:51:57;3.33;;;2.10;;
46751;SDS011;32497;48.936;9.270;2023-02-20T23:56:58;5.60;;;1.73;;
